createdAt,value
2017-08-18T00:01:10.140Z,63.10
2017-08-18T00:03:38.412Z,63.20
2017-08-18T00:06:06.703Z,63.10
2017-08-18T00:08:34.963Z,63.10
2017-08-18T00:11:03.224Z,63.10
2017-08-18T00:13:32.278Z,63.00
2017-08-18T00:16:00.535Z,63.00
2017-08-18T00:18:28.882Z,63.00
2017-08-18T00:20:57.120Z,63.00
2017-08-18T00:23:25.376Z,63.00
2017-08-18T00:25:53.655Z,62.90
2017-08-18T00:28:21.920Z,63.20
2017-08-18T00:30:50.180Z,63.50
2017-08-18T00:33:18.457Z,63.60
2017-08-18T00:35:46.740Z,63.60
2017-08-18T00:38:15.832Z,63.80
2017-08-18T00:40:44.120Z,63.80
2017-08-18T00:43:12.364Z,64.00
2017-08-18T00:45:41.399Z,63.80
2017-08-18T00:48:09.673Z,63.80
2017-08-18T00:50:38.035Z,64.00
2017-08-18T00:53:06.314Z,63.80
2017-08-18T00:55:34.637Z,63.80
2017-08-18T00:58:02.929Z,63.90
2017-08-18T01:00:31.198Z,63.90
2017-08-18T01:03:00.268Z,64.00
2017-08-18T01:05:28.538Z,63.80
2017-08-18T01:07:56.819Z,63.80
2017-08-18T01:10:26.720Z,63.90
2017-08-18T01:12:55.003Z,63.90
2017-08-18T01:15:23.291Z,64.00
2017-08-18T01:17:51.563Z,64.10
2017-08-18T01:20:19.846Z,64.00
2017-08-18T01:22:48.135Z,64.00
2017-08-18T01:25:16.446Z,63.90
2017-08-18T01:27:44.747Z,63.90
2017-08-18T01:30:13.184Z,64.00
2017-08-18T01:32:41.451Z,63.90
2017-08-18T01:35:09.698Z,63.80
2017-08-18T01:37:38.004Z,63.80
2017-08-18T01:40:06.494Z,63.90
2017-08-18T01:42:34.899Z,63.90
2017-08-18T01:45:03.179Z,63.90
2017-08-18T01:47:31.475Z,63.90
2017-08-18T01:49:59.730Z,64.10
2017-08-18T01:52:28.745Z,64.10
2017-08-18T01:54:57.024Z,64.10
2017-08-18T01:57:25.419Z,64.20
2017-08-18T01:59:53.690Z,64.10
2017-08-18T02:02:21.972Z,64.20
2017-08-18T02:04:50.467Z,64.20
2017-08-18T02:07:18.695Z,64.10
2017-08-18T02:09:46.965Z,64.10
2017-08-18T02:12:15.418Z,64.10
2017-08-18T02:14:43.670Z,64.20
2017-08-18T02:17:12.018Z,64.30
2017-08-18T02:19:40.330Z,64.20
2017-08-18T02:22:08.611Z,64.20
2017-08-18T02:24:37.341Z,64.20
2017-08-18T02:27:06.538Z,64.20
2017-08-18T02:29:34.850Z,64.20
2017-08-18T02:32:03.482Z,64.40
2017-08-18T02:34:31.799Z,64.40
2017-08-18T02:37:00.085Z,64.50
2017-08-18T02:39:28.351Z,64.60
2017-08-18T02:41:56.622Z,64.60
2017-08-18T02:44:24.960Z,64.70
2017-08-18T02:46:53.970Z,65.60
2017-08-18T02:49:22.278Z,64.90
2017-08-18T02:51:50.547Z,64.70
2017-08-18T02:54:18.807Z,64.70
2017-08-18T02:56:47.051Z,64.70
2017-08-18T02:59:15.911Z,64.90
2017-08-18T03:01:44.159Z,64.90
2017-08-18T03:04:12.422Z,64.90
2017-08-18T03:06:41.459Z,65.00
2017-08-18T03:09:09.712Z,64.90
2017-08-18T03:11:37.986Z,64.80
2017-08-18T03:14:06.293Z,64.80
2017-08-18T03:16:35.345Z,64.80
2017-08-18T03:19:03.596Z,64.80
2017-08-18T03:21:32.004Z,64.80
2017-08-18T03:24:00.248Z,64.70
2017-08-18T03:26:28.480Z,64.60
2017-08-18T03:28:56.760Z,64.80
2017-08-18T03:31:25.007Z,64.90
2017-08-18T03:33:54.243Z,65.40
2017-08-18T03:36:22.508Z,65.70
2017-08-18T03:38:50.807Z,66.00
2017-08-18T03:41:19.252Z,66.50
2017-08-18T03:43:47.505Z,66.90
2017-08-18T03:46:15.784Z,67.00
2017-08-18T03:48:44.055Z,66.90
2017-08-18T03:51:13.524Z,66.80
2017-08-18T03:53:41.814Z,66.80
2017-08-18T03:56:10.073Z,66.70
2017-08-18T03:58:38.443Z,66.80
2017-08-18T04:01:06.680Z,66.70
2017-08-18T04:03:34.936Z,66.70
2017-08-18T04:06:03.968Z,66.50
2017-08-18T04:08:32.211Z,66.60
2017-08-18T04:11:01.275Z,66.50
2017-08-18T04:13:29.530Z,66.50
2017-08-18T04:15:57.796Z,66.50
2017-08-18T04:18:27.708Z,66.60
2017-08-18T04:20:55.970Z,66.60
2017-08-18T04:23:24.332Z,66.60
2017-08-18T04:25:53.350Z,66.70
2017-08-18T04:28:21.643Z,66.60
2017-08-18T04:30:49.986Z,66.70
2017-08-18T04:33:18.236Z,66.50
2017-08-18T04:35:46.497Z,66.60
2017-08-18T04:38:14.784Z,66.90
2017-08-18T04:40:43.082Z,66.60
2017-08-18T04:43:11.345Z,66.60
2017-08-18T04:45:39.574Z,66.60
2017-08-18T04:48:08.774Z,66.60
2017-08-18T04:50:37.003Z,66.70
2017-08-18T04:53:06.039Z,66.80
2017-08-18T04:55:34.295Z,66.90
2017-08-18T04:58:02.536Z,66.60
2017-08-18T05:00:31.012Z,67.50
2017-08-18T05:02:59.795Z,67.50
2017-08-18T05:05:28.096Z,67.60
2017-08-18T05:07:57.107Z,67.30
2017-08-18T05:10:25.343Z,67.30
2017-08-18T05:12:53.641Z,67.50
2017-08-18T05:15:21.926Z,67.40
2017-08-18T05:17:50.930Z,67.60
2017-08-18T05:20:19.271Z,67.50
2017-08-18T05:22:47.578Z,67.40
2017-08-18T05:25:16.563Z,67.60
2017-08-18T05:27:44.848Z,67.70
2017-08-18T05:30:13.301Z,67.20
2017-08-18T05:32:41.526Z,67.10
2017-08-18T05:35:10.706Z,66.60
2017-08-18T05:37:39.029Z,66.10
2017-08-18T05:40:07.274Z,66.40
2017-08-18T05:42:35.531Z,66.70
2017-08-18T05:45:03.817Z,66.50
2017-08-18T05:47:32.119Z,66.60
2017-08-18T05:50:00.416Z,66.60
2017-08-18T05:52:28.684Z,66.40
2017-08-18T05:54:57.013Z,66.50
2017-08-18T05:57:25.270Z,66.60
2017-08-18T05:59:54.295Z,67.10
2017-08-18T06:02:22.610Z,66.80
2017-08-18T06:04:51.680Z,67.60
2017-08-18T06:07:20.057Z,67.60
2017-08-18T06:09:48.324Z,67.50
2017-08-18T06:12:17.199Z,67.30
2017-08-18T06:14:45.498Z,67.40
2017-08-18T06:17:13.757Z,67.10
2017-08-18T06:19:42.015Z,67.00
2017-08-18T06:22:10.332Z,66.90
2017-08-18T06:24:38.620Z,66.70
2017-08-18T06:27:06.899Z,66.70
2017-08-18T06:29:35.199Z,66.40
2017-08-18T06:32:03.468Z,66.60
2017-08-18T06:34:31.748Z,66.50
2017-08-18T06:37:00.044Z,67.30
2017-08-18T06:39:28.295Z,67.40
2017-08-18T06:41:56.695Z,67.50
2017-08-18T06:44:25.146Z,67.40
2017-08-18T06:46:53.403Z,67.60
2017-08-18T06:49:22.314Z,67.20
2017-08-18T06:51:50.564Z,67.60
2017-08-18T06:54:18.865Z,67.50
2017-08-18T06:56:47.113Z,66.90
2017-08-18T06:59:15.376Z,66.70
2017-08-18T07:01:43.651Z,67.00
2017-08-18T07:04:11.958Z,67.00
2017-08-18T07:06:40.331Z,67.60
2017-08-18T07:09:08.616Z,67.60
2017-08-18T07:11:36.893Z,67.40
2017-08-18T07:14:05.164Z,67.90
2017-08-18T07:16:33.428Z,67.60
2017-08-18T07:19:01.727Z,68.20
2017-08-18T07:21:29.999Z,68.10
2017-08-18T07:23:59.147Z,68.00
2017-08-18T07:26:28.197Z,68.10
2017-08-18T07:28:56.467Z,68.30
2017-08-18T07:31:24.988Z,68.40
2017-08-18T07:33:53.255Z,68.50
2017-08-18T07:36:21.495Z,68.40
2017-08-18T07:38:49.782Z,68.50
2017-08-18T07:41:19.132Z,68.60
2017-08-18T07:43:47.401Z,68.70
2017-08-18T07:46:15.773Z,68.60
2017-08-18T07:48:44.113Z,68.40
2017-08-18T07:51:12.473Z,68.50
2017-08-18T07:53:40.828Z,68.40
2017-08-18T07:56:09.140Z,68.40
2017-08-18T07:58:38.224Z,68.80
2017-08-18T08:01:06.735Z,68.80
2017-08-18T08:03:35.067Z,69.10
2017-08-18T08:06:03.338Z,69.30
2017-08-18T08:08:31.676Z,69.40
2017-08-18T08:11:00.726Z,69.40
2017-08-18T08:13:29.025Z,69.50
2017-08-18T08:15:57.378Z,69.50
2017-08-18T08:18:25.727Z,69.60
2017-08-18T08:20:54.743Z,69.70
2017-08-18T08:23:23.033Z,69.70
2017-08-18T08:25:51.427Z,69.60
2017-08-18T08:28:19.694Z,69.70
2017-08-18T08:30:47.985Z,69.60
2017-08-18T08:33:17.043Z,70.20
2017-08-18T08:35:45.316Z,69.70
2017-08-18T08:38:13.597Z,69.50
2017-08-18T08:40:41.837Z,69.60
2017-08-18T08:43:10.873Z,69.80
2017-08-18T08:45:39.182Z,69.80
2017-08-18T08:48:07.468Z,69.80
2017-08-18T08:50:35.752Z,69.80
2017-08-18T08:53:04.000Z,69.80
2017-08-18T08:55:32.293Z,69.70
2017-08-18T08:58:00.595Z,69.50
2017-08-18T09:00:28.867Z,69.40
2017-08-18T09:02:57.199Z,69.60
2017-08-18T09:05:25.640Z,69.60
2017-08-18T09:07:54.832Z,69.70
2017-08-18T09:10:23.909Z,69.60
2017-08-18T09:12:52.182Z,69.60
2017-08-18T09:15:20.517Z,69.50
2017-08-18T09:17:48.788Z,69.50
2017-08-18T09:20:20.089Z,69.60
2017-08-18T09:22:48.452Z,69.40
2017-08-18T09:25:16.752Z,69.30
2017-08-18T09:27:45.801Z,69.60
2017-08-18T09:30:14.103Z,69.70
2017-08-18T09:32:42.366Z,69.50
2017-08-18T09:35:10.741Z,69.50
2017-08-18T09:37:39.004Z,69.50
2017-08-18T09:40:07.244Z,69.60
2017-08-18T09:42:36.496Z,69.40
2017-08-18T09:45:04.843Z,69.60
2017-08-18T09:47:33.121Z,69.50
2017-08-18T09:50:13.453Z,69.20
2017-08-18T09:52:54.423Z,69.60
2017-08-18T09:55:34.600Z,69.50
2017-08-18T09:58:14.883Z,69.60
2017-08-18T10:00:58.824Z,69.90
2017-08-18T10:03:26.867Z,69.50
2017-08-18T10:06:08.071Z,70.10
2017-08-18T10:08:36.365Z,69.20
2017-08-18T10:11:04.877Z,68.80
2017-08-18T10:13:32.978Z,68.20
2017-08-18T10:16:01.785Z,68.60
2017-08-18T10:18:29.848Z,68.50
2017-08-18T10:20:57.934Z,68.90
2017-08-18T10:23:25.963Z,69.10
2017-08-18T10:25:54.076Z,69.00
2017-08-18T10:28:22.140Z,68.30
2017-08-18T10:30:50.266Z,68.20
2017-08-18T10:33:18.363Z,68.30
2017-08-18T10:35:46.383Z,68.20
2017-08-18T10:38:14.465Z,69.00
2017-08-18T10:40:43.440Z,68.00
2017-08-18T10:43:11.877Z,68.20
2017-08-18T10:45:39.912Z,68.20
2017-08-18T10:48:08.047Z,68.20
2017-08-18T10:50:37.012Z,68.20
2017-08-18T10:53:05.113Z,68.20
2017-08-18T10:55:33.219Z,68.20
2017-08-18T10:58:01.213Z,68.20
2017-08-18T11:00:29.245Z,68.30
2017-08-18T11:02:57.302Z,68.30
2017-08-18T11:05:26.380Z,68.40
2017-08-18T11:07:54.396Z,68.40
2017-08-18T11:10:22.608Z,67.80
2017-08-18T11:12:51.251Z,68.20
2017-08-18T11:15:19.278Z,68.40
2017-08-18T11:17:48.085Z,67.70
2017-08-18T11:20:16.907Z,67.70
2017-08-18T11:22:45.016Z,67.70
2017-08-18T11:25:13.144Z,67.60
2017-08-18T11:27:47.171Z,67.30
2017-08-18T11:30:23.033Z,67.00
2017-08-18T11:32:51.078Z,67.30
2017-08-18T11:35:19.096Z,67.40
2017-08-18T11:37:47.181Z,67.20
2017-08-18T11:40:15.245Z,67.10
2017-08-18T11:42:43.352Z,66.80
2017-08-18T11:45:11.389Z,67.00
2017-08-18T11:47:39.372Z,67.20
2017-08-18T11:50:07.506Z,67.70
2017-08-18T11:52:35.636Z,68.30
2017-08-18T11:55:03.841Z,68.50
2017-08-18T11:57:31.932Z,68.50
2017-08-18T11:59:59.993Z,68.50
2017-08-18T12:02:27.998Z,68.50
2017-08-18T12:04:56.089Z,68.50
2017-08-18T12:07:24.150Z,68.50
2017-08-18T12:09:52.245Z,68.40
2017-08-18T12:12:20.316Z,68.60
2017-08-18T12:14:49.112Z,69.50
2017-08-18T12:17:17.294Z,69.40
2017-08-18T12:19:45.431Z,69.30
2017-08-18T12:22:14.311Z,68.50
2017-08-18T12:24:42.552Z,68.50
2017-08-18T12:27:10.688Z,68.60
2017-08-18T12:29:38.754Z,68.60
2017-08-18T12:32:06.961Z,68.60
2017-08-18T12:34:35.023Z,68.60
2017-08-18T12:37:03.885Z,68.60
2017-08-18T12:39:32.000Z,68.60
2017-08-18T12:42:00.042Z,68.40
2017-08-18T12:44:28.246Z,68.40
2017-08-18T12:46:56.301Z,68.30
2017-08-18T12:49:24.294Z,67.40
2017-08-18T12:51:52.428Z,67.10
2017-08-18T12:54:20.497Z,67.10
2017-08-18T12:56:48.672Z,67.60
2017-08-18T12:59:16.736Z,68.00
2017-08-18T13:01:45.641Z,68.00
2017-08-18T13:04:13.780Z,68.00
2017-08-18T13:06:42.001Z,68.20
2017-08-18T13:09:10.033Z,68.30
2017-08-18T13:11:38.076Z,68.30
2017-08-18T13:14:06.327Z,67.40
2017-08-18T13:16:34.557Z,67.40
2017-08-18T13:19:02.797Z,67.30
2017-08-18T13:21:30.922Z,67.60
2017-08-18T13:23:59.114Z,68.30
2017-08-18T13:26:27.185Z,68.60
2017-08-18T13:28:55.860Z,68.70
2017-08-18T13:31:23.922Z,68.20
2017-08-18T13:33:51.991Z,68.50
2017-08-18T13:36:21.559Z,68.50
2017-08-18T13:38:49.680Z,68.50
2017-08-18T13:41:17.773Z,68.70
2017-08-18T13:43:46.010Z,68.40
2017-08-18T13:46:17.668Z,68.20
2017-08-18T13:48:45.717Z,68.60
2017-08-18T13:51:13.845Z,68.70
2017-08-18T13:53:42.145Z,68.70
2017-08-18T13:56:10.315Z,68.60
2017-08-18T13:58:38.501Z,68.60
2017-08-18T14:01:06.693Z,68.30
2017-08-18T14:03:34.714Z,68.10
2017-08-18T14:06:02.908Z,68.10
2017-08-18T14:08:31.183Z,68.10
2017-08-18T14:10:59.429Z,67.90
2017-08-18T14:13:27.572Z,68.00
2017-08-18T14:15:55.762Z,68.10
2017-08-18T14:18:23.844Z,67.60
2017-08-18T14:20:51.888Z,67.50
2017-08-18T14:23:20.010Z,67.30
2017-08-18T14:25:53.932Z,67.40
2017-08-18T14:28:22.216Z,67.50
2017-08-18T14:30:50.671Z,67.40
2017-08-18T14:33:19.097Z,66.60
2017-08-18T14:35:47.343Z,66.80
2017-08-18T14:38:15.639Z,66.80
2017-08-18T14:40:44.733Z,66.20
2017-08-18T14:43:13.809Z,66.70
2017-08-18T14:45:42.068Z,65.90
2017-08-18T14:48:10.387Z,65.80
2017-08-18T14:50:38.704Z,66.00
2017-08-18T14:53:06.994Z,65.60
2017-08-18T14:55:35.387Z,65.10
2017-08-18T14:58:03.647Z,64.80
2017-08-18T15:00:31.984Z,65.00
2017-08-18T15:03:01.019Z,65.10
2017-08-18T15:05:29.272Z,65.00
2017-08-18T15:07:57.561Z,65.10
2017-08-18T15:10:25.849Z,64.90
2017-08-18T15:12:54.147Z,65.20
2017-08-18T15:15:22.500Z,65.50
2017-08-18T15:17:50.812Z,65.60
2017-08-18T15:20:19.204Z,65.70
2017-08-18T15:22:47.469Z,65.60
2017-08-18T15:25:15.740Z,66.10
2017-08-18T15:27:44.004Z,66.20
2017-08-18T15:30:12.396Z,66.60
2017-08-18T15:32:40.698Z,65.50
2017-08-18T15:35:09.154Z,65.00
2017-08-18T15:37:37.456Z,64.20
2017-08-18T15:40:06.487Z,62.30
2017-08-18T15:42:34.784Z,62.70
2017-08-18T15:45:03.121Z,62.90
2017-08-18T15:47:32.198Z,63.70
2017-08-18T15:50:01.288Z,63.80
2017-08-18T15:52:30.385Z,63.60
2017-08-18T15:54:58.672Z,63.60
2017-08-18T15:57:27.723Z,64.40
2017-08-18T15:59:56.157Z,64.40
2017-08-18T16:02:25.201Z,64.40
2017-08-18T16:04:53.484Z,64.40
2017-08-18T16:07:21.984Z,64.20
2017-08-18T16:09:50.269Z,64.10
2017-08-18T16:12:19.320Z,64.50
2017-08-18T16:14:47.695Z,64.50
2017-08-18T16:17:16.166Z,64.10
2017-08-18T16:19:44.437Z,64.70
2017-08-18T16:22:12.689Z,64.20
2017-08-18T16:24:41.761Z,64.00
2017-08-18T16:27:10.068Z,63.90
2017-08-18T16:29:38.390Z,64.10
2017-08-18T16:32:07.108Z,63.50
2017-08-18T16:34:37.420Z,63.30
2017-08-18T16:37:08.448Z,64.60
2017-08-18T16:39:37.013Z,64.60
2017-08-18T16:42:06.461Z,65.10
2017-08-18T16:44:34.907Z,64.80
2017-08-18T16:47:03.205Z,64.60
2017-08-18T16:49:34.128Z,64.80
2017-08-18T16:52:03.432Z,64.70
2017-08-18T16:54:33.035Z,64.80
2017-08-18T16:57:01.436Z,64.80
2017-08-18T16:59:30.740Z,65.20
2017-08-18T17:02:00.545Z,65.30
2017-08-18T17:04:29.094Z,65.20
2017-08-18T17:06:57.392Z,65.10
2017-08-18T17:09:25.722Z,65.10
2017-08-18T17:11:54.176Z,65.20
2017-08-18T17:14:23.442Z,65.40
2017-08-18T17:16:51.862Z,65.50
2017-08-18T17:19:21.067Z,65.80
2017-08-18T17:21:50.133Z,66.00
2017-08-18T17:24:18.541Z,66.00
2017-08-18T17:26:46.877Z,66.10
2017-08-18T17:29:15.195Z,66.30
2017-08-18T17:31:43.622Z,66.30
2017-08-18T17:34:11.924Z,66.40
2017-08-18T17:36:40.483Z,66.60
2017-08-18T17:39:08.883Z,66.50
2017-08-18T17:41:37.849Z,66.10
2017-08-18T17:44:06.178Z,65.90
2017-08-18T17:46:34.498Z,65.70
2017-08-18T17:49:02.889Z,65.60
2017-08-18T17:51:31.407Z,65.90
2017-08-18T17:53:59.713Z,66.10
2017-08-18T17:56:28.155Z,66.20
2017-08-18T17:58:56.447Z,66.00
2017-08-18T18:01:25.528Z,66.90
2017-08-18T18:03:53.821Z,66.80
2017-08-18T18:06:22.232Z,67.20
2017-08-18T18:08:50.556Z,66.40
2017-08-18T18:11:19.031Z,66.50
2017-08-18T18:13:47.530Z,66.80
2017-08-18T18:16:16.010Z,66.80
2017-08-18T18:18:44.393Z,66.80
2017-08-18T18:21:12.685Z,66.50
2017-08-18T18:23:41.756Z,66.80
2017-08-18T18:26:10.078Z,66.80
2017-08-18T18:28:38.432Z,66.80
2017-08-18T18:31:06.735Z,66.90
2017-08-18T18:33:35.023Z,66.80
2017-08-18T18:36:03.387Z,66.70
2017-08-18T18:38:32.556Z,66.70
2017-08-18T18:41:00.911Z,66.60
2017-08-18T18:43:30.028Z,67.50
2017-08-18T18:45:58.316Z,66.60
2017-08-18T18:48:26.868Z,66.60
2017-08-18T18:50:55.849Z,66.60
2017-08-18T18:53:24.222Z,66.40
2017-08-18T18:55:52.505Z,66.70
2017-08-18T18:58:20.811Z,66.60
2017-08-18T19:00:49.084Z,66.60
2017-08-18T19:03:18.224Z,66.90
2017-08-18T19:05:46.614Z,66.60
2017-08-18T19:08:15.140Z,66.60
2017-08-18T19:10:43.498Z,66.50
2017-08-18T19:13:11.811Z,66.50
2017-08-18T19:15:40.905Z,66.50
2017-08-18T19:18:09.256Z,66.50
2017-08-18T19:20:38.354Z,66.80
2017-08-18T19:23:07.758Z,66.60
2017-08-18T19:25:36.137Z,66.30
2017-08-18T19:28:04.447Z,66.60
2017-08-18T19:30:32.767Z,66.60
2017-08-18T19:33:01.087Z,66.50
2017-08-18T19:35:29.396Z,66.50
2017-08-18T19:37:58.463Z,66.40
2017-08-18T19:40:36.781Z,66.10
2017-08-18T19:43:05.190Z,66.40
2017-08-18T19:45:33.535Z,66.40
2017-08-18T19:48:02.642Z,66.30
2017-08-18T19:50:31.695Z,66.30
2017-08-18T19:53:00.021Z,66.20
2017-08-18T19:55:28.488Z,66.30
2017-08-18T19:57:56.809Z,67.00
2017-08-18T20:00:25.552Z,66.40
2017-08-18T20:02:53.915Z,66.50
2017-08-18T20:05:22.455Z,66.80
2017-08-18T20:07:50.874Z,66.80
2017-08-18T20:10:20.959Z,66.40
2017-08-18T20:12:49.290Z,66.20
2017-08-18T20:15:18.388Z,66.40
2017-08-18T20:17:47.015Z,66.40
2017-08-18T20:20:18.607Z,66.30
2017-08-18T20:22:47.179Z,66.90
2017-08-18T20:25:15.486Z,67.00
2017-08-18T20:27:44.542Z,66.80
2017-08-18T20:30:12.942Z,66.40
2017-08-18T20:32:41.340Z,66.60
2017-08-18T20:35:09.769Z,66.60
2017-08-18T20:37:38.105Z,66.70
2017-08-18T20:40:06.420Z,65.60
2017-08-18T20:42:35.681Z,66.40
2017-08-18T20:45:04.988Z,65.40
2017-08-18T20:47:34.574Z,64.50
2017-08-18T20:50:03.959Z,64.90
2017-08-18T20:52:32.648Z,64.90
2017-08-18T20:55:01.129Z,65.30
2017-08-18T20:57:29.468Z,65.20
2017-08-18T20:59:58.021Z,65.20
2017-08-18T21:02:26.332Z,65.40
2017-08-18T21:04:54.638Z,64.70
2017-08-18T21:07:23.048Z,64.00
2017-08-18T21:09:51.410Z,63.80
2017-08-18T21:12:19.784Z,63.20
2017-08-18T21:14:48.182Z,63.80
2017-08-18T21:17:16.781Z,64.20
2017-08-18T21:19:45.555Z,64.20
2017-08-18T21:22:14.314Z,64.10
2017-08-18T21:24:43.424Z,63.50
2017-08-18T21:27:11.836Z,64.00
2017-08-18T21:29:40.183Z,64.10
2017-08-18T21:32:08.474Z,64.10
2017-08-18T21:34:37.744Z,64.30
2017-08-18T21:37:06.055Z,64.10
2017-08-18T21:39:35.095Z,63.80
2017-08-18T21:42:03.421Z,63.90
2017-08-18T21:44:32.742Z,63.50
2017-08-18T21:47:01.213Z,63.40
2017-08-18T21:49:30.401Z,63.60
2017-08-18T21:51:58.701Z,63.60
2017-08-18T21:54:27.063Z,63.70
2017-08-18T21:56:55.394Z,64.20
2017-08-18T21:59:23.691Z,63.70
2017-08-18T22:01:52.300Z,64.50
2017-08-18T22:04:21.382Z,64.80
2017-08-18T22:06:49.859Z,64.40
2017-08-18T22:09:19.669Z,64.40
2017-08-18T22:11:48.151Z,64.50
2017-08-18T22:14:16.568Z,64.20
2017-08-18T22:16:45.664Z,64.10
2017-08-18T22:19:14.717Z,64.00
2017-08-18T22:21:43.078Z,64.00
2017-08-18T22:24:11.379Z,63.90
2017-08-18T22:26:39.652Z,63.60
2017-08-18T22:29:07.951Z,63.70
2017-08-18T22:31:37.015Z,63.90
2017-08-18T22:34:05.314Z,63.90
2017-08-18T22:36:37.689Z,63.90
2017-08-18T22:39:06.867Z,64.00
2017-08-18T22:41:35.266Z,63.70
2017-08-18T22:44:04.302Z,63.30
2017-08-18T22:46:32.957Z,63.40
2017-08-18T22:49:01.259Z,63.70
2017-08-18T22:51:30.289Z,64.00
2017-08-18T22:53:58.994Z,64.00
2017-08-18T22:56:28.043Z,63.70
2017-08-18T22:58:57.035Z,63.80
2017-08-18T23:01:25.407Z,63.30
2017-08-18T23:03:53.747Z,63.90
2017-08-18T23:06:22.007Z,63.60
2017-08-18T23:08:50.314Z,63.70
2017-08-18T23:11:19.393Z,64.30
2017-08-18T23:13:47.644Z,64.40
2017-08-18T23:16:15.952Z,64.10
2017-08-18T23:18:44.363Z,63.70
2017-08-18T23:21:13.406Z,63.40
2017-08-18T23:23:41.707Z,63.60
2017-08-18T23:26:10.768Z,63.40
2017-08-18T23:28:39.093Z,63.50
2017-08-18T23:31:07.341Z,63.10
2017-08-18T23:33:35.729Z,62.80
2017-08-18T23:36:04.847Z,62.80
2017-08-18T23:38:33.139Z,62.70
2017-08-18T23:41:01.607Z,62.50
2017-08-18T23:43:30.637Z,62.90
2017-08-18T23:45:58.961Z,62.60
2017-08-18T23:48:27.267Z,62.90
2017-08-18T23:50:55.570Z,62.50
2017-08-18T23:53:23.855Z,62.10
2017-08-18T23:55:52.904Z,62.70
2017-08-18T23:58:21.191Z,62.70
